Pittsfield, IL

12:57 PM CDT on August 25, 2016 (GMT -0500)
Pittsfield Penstone Municipal

Weather History for KPPQ - October, 2012

Change the Weather History Date:

Friday, October 26, 2012

  Actual Average (KUIN) Record (KUIN)
Temperature  
Mean Temperature 42 °F 52 °F  
Max Temperature 49 °F 61 °F 85 °F (1963)
Min Temperature 35 °F 42 °F 21 °F (1942)
Degree Days  
Heating Degree Days 24 14  
Month to date heating degree days 262  
Since 1 July heating degree days 349  
Cooling Degree Days 0 0  
Month to date cooling degree days 14  
Year to date cooling degree days 1090  
Moisture  
Dew Point 31 °F    
Average Humidity 64    
Maximum Humidity 79    
Minimum Humidity 48    
Precipitation  
Precipitation 0.00 in 0.10 in 1.29 in (2004)
Month to date precipitation 2.53  
Year to date precipitation 31.58  
Sea Level Pressure  
Sea Level Pressure 30.33 in    
Wind  
Wind Speed 14 mph (NNW)    
Max Wind Speed 20 mph    
Max Gust Speed 26 mph    
Visibility 10 miles    
Events      
T = Trace of Precipitation, MM = Missing Value Source: NWS Daily Summary

Daily Weather History Graph

Daily Weather History Graph

Search for Another Location

Airport or City:

Trip Planner

Search our weather history database for the weather conditions in past years. The results will help you decide how hot, cold, wet, or windy it might be!

Date:

Astronomy

Oct. 26, 2012 Rise Set
Actual Time 7:25 AM CDT 6:07 PM CDT
Civil Twilight 6:57 AM CDT 6:35 PM CDT
Nautical Twilight 6:26 AM CDT 7:07 PM CDT
Astronomical Twilight 5:54 AM CDT 7:38 PM CDT
Moon 4:23 PM CDT (10/26) 4:22 AM CDT (10/26)
Length of Visible Light 11h 37m
Length of Day
10h 42m
Waxing Gibbous, 91% of the Moon is Illuminated
Oct 26
Waxing Gibbous
Oct 29
Full
Nov 6
Last Quarter
Nov 13
New
Nov 20
First Quarter

Hourly Weather History & Observations

Time (CDT) Temp. Windchill Dew Point Humidity Pressure Visibility Wind Dir Wind Speed Gust Speed Precip Events Conditions
12:15 AM 42.3 °F 34.1 °F 34.5 °F 74% 30.21 in 10.0 mi NNW 17.3 mph 23.0 mph N/A   Overcast
12:35 AM 42.8 °F 35.1 °F 33.8 °F 70% 30.23 in 10.0 mi NNW 16.1 mph 20.7 mph N/A   Overcast
12:55 AM 41.5 °F 32.9 °F 33.3 °F 72% 30.23 in 10.0 mi NNW 18.4 mph 26.5 mph N/A   Overcast
1:15 AM 41.0 °F 32.5 °F 33.8 °F 76% 30.23 in 10.0 mi NNW 17.3 mph 21.9 mph N/A   Overcast
1:35 AM 41.4 °F 33.0 °F 33.3 °F 73% 30.23 in 10.0 mi NW 17.3 mph - N/A   Overcast
1:55 AM 41.0 °F 31.9 °F 32.4 °F 71% 30.24 in 10.0 mi NW 19.6 mph 24.2 mph N/A   Overcast
2:15 AM 40.6 °F 31.4 °F 32.0 °F 71% 30.25 in 10.0 mi NW 19.6 mph 25.3 mph N/A   Overcast
2:35 AM 40.5 °F 31.2 °F 31.8 °F 71% 30.26 in 10.0 mi NW 19.6 mph - N/A   Overcast
2:55 AM 40.1 °F 32.4 °F 31.6 °F 72% 30.28 in 10.0 mi NW 13.8 mph 18.4 mph N/A   Overcast
3:15 AM 40.1 °F 32.0 °F 31.8 °F 72% 30.28 in 10.0 mi NNW 15.0 mph 23.0 mph N/A   Overcast
3:35 AM 40.1 °F 32.7 °F 32.0 °F 73% 30.28 in 10.0 mi NNW 12.7 mph 18.4 mph N/A   Overcast
3:55 AM 40.1 °F 32.7 °F 32.0 °F 73% 30.28 in 10.0 mi NNW 12.7 mph 19.6 mph N/A   Overcast
4:15 AM 40.1 °F 34.1 °F 32.0 °F 73% 30.29 in 10.0 mi NNW 9.2 mph - N/A   Overcast
4:35 AM 39.7 °F 32.7 °F 32.0 °F 74% 30.29 in 10.0 mi NNW 11.5 mph - N/A   Overcast
4:55 AM 39.0 °F 32.3 °F 30.9 °F 73% 30.30 in 10.0 mi NNW 10.4 mph - N/A   Overcast
5:15 AM 38.1 °F 32.3 °F 30.2 °F 73% 30.30 in 10.0 mi NNW 8.1 mph - N/A   Scattered Clouds
5:35 AM 36.9 °F 30.1 °F 30.7 °F 79% 30.31 in 10.0 mi NNW 9.2 mph - N/A   Clear
5:55 AM 36.7 °F 28.9 °F 30.6 °F 78% 30.31 in 10.0 mi NNW 11.5 mph - N/A   Clear
6:15 AM 36.5 °F 29.7 °F 30.2 °F 78% 30.32 in 10.0 mi NW 9.2 mph - N/A   Clear
6:35 AM 36.1 °F 28.2 °F 29.8 °F 78% 30.32 in 10.0 mi NW 11.5 mph - N/A   Clear
6:55 AM 36.0 °F 28.5 °F 29.8 °F 78% 30.33 in 10.0 mi NW 10.4 mph - N/A   Clear
7:15 AM 35.8 °F 26.9 °F 29.5 °F 78% 30.33 in 10.0 mi NW 13.8 mph - N/A   Clear
7:35 AM 35.6 °F 28.0 °F 29.3 °F 78% 30.34 in 10.0 mi NW 10.4 mph - N/A   Clear
7:55 AM 35.8 °F 28.3 °F 29.1 °F 77% 30.35 in 10.0 mi NNW 10.4 mph 16.1 mph N/A   Clear
8:15 AM 35.8 °F 27.8 °F 28.8 °F 76% 30.36 in 10.0 mi NNW 11.5 mph - N/A   Clear
8:35 AM 35.6 °F 27.1 °F 28.4 °F 75% 30.36 in 10.0 mi NNW 12.7 mph - N/A   Clear
8:55 AM 37.9 °F 29.2 °F 29.1 °F 71% 30.36 in 10.0 mi NNW 15.0 mph 19.6 mph N/A   Clear
9:15 AM 39.2 °F 30.5 °F 28.4 °F 65% 30.36 in 10.0 mi North 16.1 mph 26.5 mph N/A   Clear
9:35 AM 41.0 °F 32.8 °F 28.4 °F 61% 30.36 in 10.0 mi North 16.1 mph 25.3 mph N/A   Clear
9:55 AM 41.0 °F 31.9 °F 28.0 °F 60% 30.37 in 10.0 mi North 19.6 mph 25.3 mph N/A   Clear
10:15 AM 41.9 °F 33.7 °F 27.7 °F 57% 30.37 in 10.0 mi North 17.3 mph 23.0 mph N/A   Clear
10:35 AM 42.4 °F 34.1 °F 27.9 °F 56% 30.37 in 10.0 mi North 18.4 mph 25.3 mph N/A   Clear
10:55 AM 42.8 °F 34.8 °F 28.2 °F 56% 30.37 in 10.0 mi North 17.3 mph 25.3 mph N/A   Clear
11:15 AM 43.5 °F 36.1 °F 29.1 °F 57% 30.38 in 10.0 mi North 16.1 mph 24.2 mph N/A   Clear
11:35 AM 43.9 °F 37.2 °F 28.4 °F 55% 30.38 in 10.0 mi North 13.8 mph 19.6 mph N/A   Clear
11:55 AM 45.5 °F 38.9 °F 30.7 °F 56% 30.37 in 10.0 mi North 15.0 mph 19.6 mph N/A   Clear
12:15 PM 45.5 °F 38.9 °F 30.2 °F 55% 30.37 in 10.0 mi NNW 15.0 mph 21.9 mph N/A   Clear
12:35 PM 46.4 °F 40.4 °F 30.2 °F 53% 30.37 in 10.0 mi North 13.8 mph 18.4 mph N/A   Clear
12:55 PM 46.4 °F 41.5 °F 28.9 °F 51% 30.36 in 10.0 mi North 10.4 mph 23.0 mph N/A   Clear
1:15 PM 47.3 °F - 30.0 °F 51% 30.36 in 10.0 mi North 15.0 mph 20.7 mph N/A   Clear
1:35 PM 47.3 °F - 29.7 °F 50% 30.35 in 10.0 mi NNW 10.4 mph - N/A   Clear
1:55 PM 47.8 °F - 30.2 °F 50% 30.35 in 10.0 mi NNW 11.5 mph 18.4 mph N/A   Clear
2:15 PM 48.2 °F - 30.2 °F 50% 30.34 in 10.0 mi North 12.7 mph - N/A   Clear
2:35 PM 48.2 °F - 29.8 °F 49% 30.33 in 10.0 mi North 11.5 mph - N/A   Clear
2:55 PM 48.2 °F - 30.0 °F 49% 30.32 in 10.0 mi NNW 15.0 mph 23.0 mph N/A   Clear
3:15 PM 48.6 °F - 30.6 °F 50% 30.32 in 10.0 mi NW 12.7 mph 20.7 mph N/A   Clear
3:35 PM 47.8 °F - 29.1 °F 48% 30.31 in 10.0 mi NNW 16.1 mph 21.9 mph N/A   Clear
3:55 PM 48.4 °F - 30.7 °F 51% 30.32 in 10.0 mi NNW 10.4 mph - N/A   Clear
4:15 PM 47.3 °F - 30.7 °F 53% 30.32 in 10.0 mi NNW 11.5 mph - N/A   Clear
4:35 PM 47.3 °F - 31.1 °F 53% 30.32 in 10.0 mi NNW 11.5 mph - N/A   Clear
4:55 PM 46.9 °F - 30.9 °F 54% 30.32 in 10.0 mi NNW 10.4 mph - N/A   Clear
5:15 PM 46.4 °F 41.9 °F 31.3 °F 56% 30.33 in 10.0 mi NW 9.2 mph - N/A   Clear
5:35 PM 45.9 °F 40.8 °F 31.5 °F 57% 30.32 in 10.0 mi NNW 10.4 mph - N/A   Clear
5:55 PM 45.7 °F 41.5 °F 30.9 °F 56% 30.33 in 10.0 mi NW 8.1 mph - N/A   Clear
6:15 PM 45.0 °F 40.6 °F 30.6 °F 57% 30.33 in 10.0 mi NNW 8.1 mph - N/A   Clear
6:35 PM 44.4 °F 40.5 °F 31.3 °F 60% 30.33 in 10.0 mi NNW 6.9 mph - N/A   Clear
6:55 PM 43.9 °F 39.3 °F 31.5 °F 62% 30.34 in 10.0 mi NW 8.1 mph - N/A   Clear
7:15 PM 43.2 °F 39.7 °F 31.5 °F 63% 30.35 in 10.0 mi NW 5.8 mph - N/A   Clear
7:35 PM 42.1 °F 37.7 °F 31.5 °F 66% 30.35 in 10.0 mi NW 6.9 mph - N/A   Clear
7:55 PM 41.5 °F 36.4 °F 31.5 °F 67% 30.34 in 10.0 mi NW 8.1 mph - N/A   Clear
8:15 PM 41.7 °F 36.1 °F 30.9 °F 66% 30.34 in 10.0 mi NNW 9.2 mph - N/A   Clear
8:35 PM 40.8 °F 35.0 °F 31.1 °F 68% 30.34 in 10.0 mi NNW 9.2 mph - N/A   Clear
8:55 PM 41.7 °F 35.2 °F 30.9 °F 66% 30.34 in 10.0 mi NNW 11.5 mph - N/A   Clear
9:15 PM 42.1 °F 36.1 °F 30.7 °F 64% 30.35 in 10.0 mi NNW 10.4 mph - N/A   Clear
9:35 PM 42.1 °F 35.7 °F 30.7 °F 64% 30.35 in 10.0 mi NNW 11.5 mph - N/A   Clear
9:55 PM 41.9 °F 35.4 °F 30.2 °F 63% 30.34 in 10.0 mi NNW 11.5 mph 19.6 mph N/A   Clear
10:15 PM 41.9 °F 35.4 °F 30.0 °F 63% 30.34 in 10.0 mi North 11.5 mph 17.3 mph N/A   Clear
10:35 PM 41.5 °F 35.0 °F 30.0 °F 64% 30.35 in 10.0 mi North 11.5 mph - N/A   Clear
10:55 PM 41.0 °F 35.8 °F 30.2 °F 65% 30.35 in 10.0 mi North 8.1 mph - N/A   Clear
11:15 PM 40.5 °F 35.8 °F 29.8 °F 66% 30.35 in 10.0 mi North 6.9 mph - N/A   Clear
11:35 PM 41.0 °F 36.4 °F 30.2 °F 65% 30.35 in 10.0 mi North 6.9 mph - N/A   Clear
11:55 PM 40.1 °F 34.1 °F 29.8 °F 67% 30.35 in 10.0 mi North 9.2 mph - N/A   Clear